createdAt,value
2018-11-02T00:03:29.596Z,74.40
2018-11-02T00:08:33.441Z,74.60
2018-11-02T00:13:52.732Z,74.80
2018-11-02T00:18:56.484Z,75.10
2018-11-02T00:24:00.175Z,74.80
2018-11-02T00:29:03.911Z,74.70
2018-11-02T00:34:07.652Z,74.50
2018-11-02T00:39:11.352Z,74.80
2018-11-02T00:44:15.131Z,74.20
2018-11-02T00:49:18.767Z,74.50
2018-11-02T00:54:22.496Z,74.50
2018-11-02T00:59:26.284Z,74.30
2018-11-02T01:04:30.053Z,74.30
2018-11-02T01:09:33.840Z,74.30
2018-11-02T01:14:37.548Z,74.00
2018-11-02T01:19:41.296Z,74.20
2018-11-02T01:24:45.033Z,73.80
2018-11-02T01:29:48.731Z,74.10
2018-11-02T01:34:52.537Z,74.50
2018-11-02T01:39:56.252Z,74.20
2018-11-02T01:44:59.976Z,74.20
2018-11-02T01:50:03.769Z,74.50
2018-11-02T01:55:07.870Z,74.90
2018-11-02T02:00:11.573Z,74.90
2018-11-02T02:05:15.300Z,74.40
2018-11-02T02:10:19.041Z,74.50
2018-11-02T02:15:22.764Z,74.60
2018-11-02T02:20:26.506Z,74.70
2018-11-02T02:25:30.204Z,75.00
2018-11-02T02:30:33.901Z,75.00
2018-11-02T02:35:37.624Z,75.10
2018-11-02T02:40:41.348Z,75.10
2018-11-02T02:45:45.060Z,75.30
2018-11-02T02:50:48.828Z,75.50
2018-11-02T02:55:52.527Z,75.90
2018-11-02T03:00:56.247Z,75.80
2018-11-02T03:05:59.992Z,76.30
2018-11-02T03:11:03.993Z,75.90
2018-11-02T03:16:07.431Z,76.00
2018-11-02T03:21:11.171Z,75.90
2018-11-02T03:26:14.892Z,76.60
2018-11-02T03:31:18.624Z,75.40
2018-11-02T03:36:22.376Z,75.70
2018-11-02T03:41:26.088Z,75.70
2018-11-02T03:46:29.831Z,75.70
2018-11-02T03:51:33.553Z,75.20
2018-11-02T03:56:37.304Z,75.40
2018-11-02T04:01:40.981Z,75.40
2018-11-02T04:06:44.768Z,75.20
2018-11-02T04:11:48.480Z,75.60
2018-11-02T04:16:52.217Z,75.40
2018-11-02T04:21:55.936Z,75.20
2018-11-02T04:26:59.688Z,75.00
2018-11-02T04:32:03.424Z,75.40
2018-11-02T04:37:07.160Z,75.10
2018-11-02T04:42:10.891Z,75.50
2018-11-02T04:47:14.615Z,75.30
2018-11-02T04:52:18.352Z,75.70
2018-11-02T04:57:22.109Z,75.80
2018-11-02T05:02:25.837Z,75.70
2018-11-02T05:07:29.572Z,76.10
2018-11-02T05:12:33.312Z,76.10
2018-11-02T05:17:37.057Z,76.30
2018-11-02T05:22:40.780Z,76.40
2018-11-02T05:27:44.511Z,76.40
2018-11-02T05:32:48.257Z,76.60
2018-11-02T05:37:52.076Z,76.30
2018-11-02T05:42:55.891Z,76.30
2018-11-02T05:47:59.708Z,76.00
2018-11-02T05:53:03.424Z,76.20
2018-11-02T05:58:07.180Z,76.40
2018-11-02T06:03:11.011Z,76.20
2018-11-02T06:08:14.747Z,76.10
2018-11-02T06:13:18.498Z,76.20
2018-11-02T06:18:22.303Z,75.90
2018-11-02T06:23:26.076Z,76.50
2018-11-02T06:28:29.844Z,76.50
2018-11-02T06:33:33.596Z,77.00
2018-11-02T06:38:37.386Z,77.00
2018-11-02T06:43:41.036Z,77.20
2018-11-02T06:48:44.820Z,77.00
2018-11-02T06:53:48.607Z,78.10
2018-11-02T06:58:52.371Z,77.10
2018-11-02T07:03:56.081Z,77.30
2018-11-02T07:08:59.811Z,77.40
2018-11-02T07:14:03.605Z,77.40
2018-11-02T07:19:07.268Z,77.30
2018-11-02T07:24:11.001Z,77.50
2018-11-02T07:29:14.736Z,77.30
2018-11-02T07:34:18.620Z,77.50
2018-11-02T07:39:22.351Z,77.50
2018-11-02T07:44:26.068Z,77.40
2018-11-02T07:49:29.889Z,77.50
2018-11-02T07:54:33.513Z,77.50
2018-11-02T07:59:37.295Z,77.40
2018-11-02T08:04:41.096Z,77.20
2018-11-02T08:09:44.820Z,77.30
2018-11-02T08:14:48.568Z,77.30
2018-11-02T08:19:52.298Z,77.30
2018-11-02T08:24:56.056Z,77.40
2018-11-02T08:29:59.793Z,77.00
2018-11-02T08:35:03.531Z,77.90
2018-11-02T08:40:08.224Z,77.00
2018-11-02T08:45:11.933Z,77.00
2018-11-02T08:50:15.663Z,77.20
2018-11-02T08:55:19.377Z,77.20
2018-11-02T09:00:23.092Z,77.00
2018-11-02T09:05:26.895Z,76.70
2018-11-02T09:10:30.636Z,76.70
2018-11-02T09:15:34.384Z,76.90
2018-11-02T09:20:38.200Z,76.90
2018-11-02T09:25:41.932Z,76.90
2018-11-02T09:30:45.728Z,77.10
2018-11-02T09:35:49.458Z,76.90
2018-11-02T09:40:53.176Z,76.90
2018-11-02T09:45:56.960Z,77.00
2018-11-02T09:51:00.853Z,77.00
2018-11-02T09:56:04.743Z,76.80
2018-11-02T10:01:08.513Z,76.90
2018-11-02T10:06:12.252Z,76.60
2018-11-02T10:11:15.952Z,76.30
2018-11-02T10:16:19.643Z,75.80
2018-11-02T10:21:23.410Z,75.50
2018-11-02T10:26:27.129Z,75.20
2018-11-02T10:31:30.843Z,74.80
2018-11-02T10:36:35.093Z,74.60
2018-11-02T10:41:41.725Z,74.20
2018-11-02T10:46:46.683Z,74.10
2018-11-02T10:51:50.416Z,74.10
2018-11-02T10:56:54.149Z,73.90
2018-11-02T11:02:03.297Z,73.90
2018-11-02T11:07:07.047Z,73.50
2018-11-02T11:12:10.820Z,73.00
2018-11-02T11:17:14.507Z,72.60
2018-11-02T11:22:18.219Z,72.50
2018-11-02T11:27:21.961Z,72.20
2018-11-02T11:32:25.692Z,72.90
2018-11-02T11:37:29.484Z,72.00
2018-11-02T11:42:33.196Z,72.20
2018-11-02T11:47:37.289Z,72.40
2018-11-02T11:52:41.200Z,72.30
2018-11-02T11:57:45.902Z,71.90
2018-11-02T12:02:50.315Z,72.00
2018-11-02T12:07:54.077Z,71.70
2018-11-02T12:12:57.812Z,72.10
2018-11-02T12:18:01.652Z,71.70
2018-11-02T12:23:05.944Z,71.80
2018-11-02T12:28:09.789Z,71.70
2018-11-02T12:33:13.526Z,71.00
2018-11-02T12:38:17.248Z,71.20
2018-11-02T12:43:21.156Z,71.30
2018-11-02T12:48:24.836Z,71.20
2018-11-02T12:53:28.455Z,71.30
2018-11-02T12:58:32.208Z,71.10
2018-11-02T13:03:36.020Z,70.20
2018-11-02T13:08:39.840Z,69.30
2018-11-02T13:13:43.617Z,68.80
2018-11-02T13:18:47.444Z,68.70
2018-11-02T13:23:51.051Z,68.00
2018-11-02T13:28:55.293Z,67.80
2018-11-02T13:33:59.025Z,67.00
2018-11-02T13:39:02.756Z,66.40
2018-11-02T13:44:07.045Z,66.30
2018-11-02T13:49:10.752Z,66.30
2018-11-02T13:54:14.478Z,66.20
2018-11-02T13:59:18.208Z,66.10
2018-11-02T14:04:21.928Z,66.00
2018-11-02T14:09:25.646Z,65.90
2018-11-02T14:14:29.381Z,66.10
2018-11-02T14:19:33.116Z,66.30
2018-11-02T14:24:36.825Z,66.30
2018-11-02T14:29:40.680Z,66.40
2018-11-02T14:34:44.328Z,66.40
2018-11-02T14:39:48.052Z,66.50
2018-11-02T14:44:51.756Z,66.60
2018-11-02T14:49:55.501Z,66.50
2018-11-02T14:54:59.220Z,66.70
2018-11-02T15:00:03.040Z,67.40
2018-11-02T15:05:07.896Z,67.40
2018-11-02T15:10:11.688Z,67.20
2018-11-02T15:15:15.414Z,67.10
2018-11-02T15:20:19.128Z,66.60
2018-11-02T15:25:22.847Z,67.10
2018-11-02T15:30:26.557Z,67.00
2018-11-02T15:35:30.300Z,67.00
2018-11-02T15:40:34.032Z,66.90
2018-11-02T15:45:37.724Z,66.70
2018-11-02T15:50:41.443Z,67.00
2018-11-02T15:55:45.158Z,66.80
2018-11-02T16:00:48.858Z,67.30
2018-11-02T16:05:52.560Z,67.00
2018-11-02T16:10:56.284Z,67.10
2018-11-02T16:16:00.004Z,67.90
2018-11-02T16:21:03.720Z,68.30
2018-11-02T16:26:07.557Z,68.80
2018-11-02T16:31:11.279Z,68.40
2018-11-02T16:36:14.997Z,68.20
2018-11-02T16:41:18.780Z,68.40
2018-11-02T16:46:22.517Z,68.60
2018-11-02T16:51:26.251Z,68.30
2018-11-02T16:56:30.807Z,68.60
2018-11-02T17:01:34.533Z,68.60
2018-11-02T17:06:38.300Z,68.80
2018-11-02T17:11:42.103Z,68.60
2018-11-02T17:16:45.704Z,68.30
2018-11-02T17:21:49.517Z,68.60
2018-11-02T17:26:53.200Z,68.60
2018-11-02T17:31:56.920Z,68.40
2018-11-02T17:37:00.751Z,68.40
2018-11-02T17:42:04.645Z,68.20
2018-11-02T17:47:08.741Z,68.60
2018-11-02T17:52:12.436Z,68.50
2018-11-02T17:57:16.417Z,68.60
2018-11-02T18:02:20.184Z,69.00
2018-11-02T18:07:23.993Z,68.60
2018-11-02T18:12:27.923Z,68.70
2018-11-02T18:17:31.652Z,68.80
2018-11-02T18:22:35.884Z,69.30
2018-11-02T18:27:40.145Z,69.40
2018-11-02T18:32:43.935Z,69.70
2018-11-02T18:37:47.658Z,69.50
2018-11-02T18:42:51.476Z,70.10
2018-11-02T18:47:55.241Z,70.00
2018-11-02T18:52:58.921Z,69.80
2018-11-02T18:58:02.725Z,69.90
2018-11-02T19:03:06.477Z,69.60
2018-11-02T19:08:10.180Z,69.70
2018-11-02T19:13:13.955Z,70.30
2018-11-02T19:18:17.672Z,70.20
2018-11-02T19:23:21.467Z,70.40
2018-11-02T19:28:25.204Z,70.70
2018-11-02T19:33:28.941Z,70.70
2018-11-02T19:38:32.746Z,70.80
2018-11-02T19:43:36.427Z,70.80
2018-11-02T19:48:40.150Z,70.80
2018-11-02T19:53:44.059Z,70.70
2018-11-02T19:58:47.721Z,71.00
2018-11-02T20:03:51.472Z,71.10
2018-11-02T20:08:55.224Z,71.10
2018-11-02T20:13:58.940Z,71.10
2018-11-02T20:19:02.775Z,71.60
2018-11-02T20:24:06.512Z,71.70
2018-11-02T20:29:10.356Z,71.30
2018-11-02T20:34:14.260Z,71.60
2018-11-02T20:39:18.089Z,71.90
2018-11-02T20:44:21.812Z,71.80
2018-11-02T20:49:25.527Z,71.60
2018-11-02T20:54:29.251Z,71.90
2018-11-02T20:59:32.980Z,71.80
2018-11-02T21:04:36.935Z,72.20
2018-11-02T21:09:40.822Z,71.90
2018-11-02T21:14:44.525Z,71.30
2018-11-02T21:19:48.196Z,71.70
2018-11-02T21:24:51.968Z,71.70
2018-11-02T21:29:55.720Z,71.90
2018-11-02T21:34:59.548Z,71.60
2018-11-02T21:40:03.472Z,72.20
2018-11-02T21:45:07.280Z,72.20
2018-11-02T21:50:11.744Z,72.60
2018-11-02T21:55:15.567Z,73.10
2018-11-02T22:00:20.536Z,72.80
2018-11-02T22:05:24.240Z,72.80
2018-11-02T22:10:27.955Z,72.90
2018-11-02T22:15:31.780Z,73.00
2018-11-02T22:20:35.536Z,73.60
2018-11-02T22:25:39.256Z,73.50
2018-11-02T22:30:43.054Z,74.00
2018-11-02T22:35:46.772Z,73.50
2018-11-02T22:40:50.508Z,73.50
2018-11-02T22:45:54.284Z,73.60
2018-11-02T22:50:58.013Z,73.50
2018-11-02T22:56:01.714Z,73.60
2018-11-02T23:01:11.323Z,73.80
2018-11-02T23:06:15.020Z,74.40
2018-11-02T23:11:18.738Z,73.50
2018-11-02T23:16:22.468Z,73.40
2018-11-02T23:21:26.213Z,73.60
2018-11-02T23:26:30.012Z,73.60
2018-11-02T23:31:34.255Z,73.70
2018-11-02T23:36:37.987Z,73.60
2018-11-02T23:41:41.723Z,73.60
2018-11-02T23:46:45.452Z,73.30
2018-11-02T23:51:49.180Z,73.60
2018-11-02T23:56:52.906Z,73.60
